createdAt,value
2022-12-31T00:01:26.320Z,5.07
2022-12-31T00:03:55.633Z,5.50
2022-12-31T00:06:27.969Z,4.05
2022-12-31T00:08:57.156Z,4.40
2022-12-31T00:11:26.949Z,5.20
2022-12-31T00:13:55.336Z,5.95
2022-12-31T00:16:24.926Z,5.70
2022-12-31T00:18:54.876Z,4.40
2022-12-31T00:21:24.007Z,4.30
2022-12-31T00:23:52.756Z,4.07
2022-12-31T00:26:22.370Z,3.90
2022-12-31T00:28:49.946Z,4.03
2022-12-31T00:31:19.216Z,4.32
2022-12-31T00:33:47.347Z,4.07
2022-12-31T00:36:16.779Z,3.95
2022-12-31T00:38:47.682Z,3.60
2022-12-31T00:41:16.372Z,3.17
2022-12-31T00:43:44.473Z,2.95
2022-12-31T00:46:12.665Z,3.08
2022-12-31T00:48:40.806Z,3.13
2022-12-31T00:51:11.699Z,3.03
2022-12-31T00:53:40.076Z,3.05
2022-12-31T00:56:11.878Z,3.08
2022-12-31T00:58:39.965Z,2.97
2022-12-31T01:01:11.499Z,2.78
2022-12-31T01:03:39.511Z,2.78
2022-12-31T01:06:08.164Z,2.72
2022-12-31T01:08:36.305Z,2.63
2022-12-31T01:11:19.461Z,2.90
2022-12-31T01:13:50.184Z,3.50
2022-12-31T01:16:21.687Z,3.00
2022-12-31T01:18:50.416Z,2.80
2022-12-31T01:21:19.269Z,3.75
2022-12-31T01:23:47.102Z,5.60
2022-12-31T01:26:16.742Z,3.75
2022-12-31T01:28:44.796Z,4.20
2022-12-31T01:31:15.887Z,4.15
2022-12-31T01:33:44.220Z,3.13
2022-12-31T01:36:14.211Z,3.45
2022-12-31T01:38:42.247Z,3.00
2022-12-31T01:41:13.007Z,2.92
2022-12-31T01:43:47.796Z,3.03
2022-12-31T01:46:23.586Z,2.85
2022-12-31T01:48:54.765Z,3.17
2022-12-31T01:51:24.076Z,3.08
2022-12-31T01:53:52.561Z,2.88
2022-12-31T01:56:22.461Z,2.90
2022-12-31T01:58:53.345Z,3.15
2022-12-31T02:01:27.816Z,3.28
2022-12-31T02:03:56.903Z,3.65
2022-12-31T02:06:29.793Z,3.30
2022-12-31T02:08:58.852Z,3.30
2022-12-31T02:11:29.067Z,3.10
2022-12-31T02:13:59.493Z,2.95
2022-12-31T02:16:35.689Z,2.90
2022-12-31T02:19:21.355Z,2.50
2022-12-31T02:22:01.246Z,2.35
2022-12-31T02:24:55.268Z,2.58
2022-12-31T02:27:52.909Z,2.50
2022-12-31T02:33:02.852Z,2.10
2022-12-31T02:35:34.096Z,2.50
2022-12-31T02:38:06.303Z,2.50
2022-12-31T02:40:37.287Z,1.92
2022-12-31T02:43:05.716Z,2.00
2022-12-31T02:45:38.476Z,1.92
2022-12-31T02:48:26.067Z,2.03
2022-12-31T02:51:04.748Z,2.30
2022-12-31T02:54:05.859Z,2.00
2022-12-31T02:56:39.495Z,2.10
2022-12-31T02:59:32.484Z,1.98
2022-12-31T03:02:16.555Z,2.38
2022-12-31T03:04:49.976Z,2.25
2022-12-31T03:07:21.660Z,2.13
2022-12-31T03:09:50.123Z,2.00
2022-12-31T03:12:39.049Z,1.73
2022-12-31T03:15:20.181Z,2.25
2022-12-31T03:17:57.217Z,2.10
2022-12-31T03:20:47.456Z,2.25
2022-12-31T03:23:20.765Z,2.15
2022-12-31T03:25:49.399Z,2.33
2022-12-31T03:28:19.576Z,2.50
2022-12-31T03:30:49.819Z,2.10
2022-12-31T03:33:19.865Z,2.92
2022-12-31T03:35:48.681Z,2.50
2022-12-31T03:38:17.352Z,2.90
2022-12-31T03:40:47.219Z,2.90
2022-12-31T03:43:15.577Z,2.53
2022-12-31T03:45:43.760Z,2.53
2022-12-31T03:48:11.868Z,2.83
2022-12-31T03:50:41.361Z,2.90
2022-12-31T03:53:09.524Z,2.78
2022-12-31T03:55:38.032Z,3.17
2022-12-31T03:58:06.132Z,2.95
2022-12-31T04:00:34.226Z,2.85
2022-12-31T04:03:02.304Z,3.58
2022-12-31T04:05:30.361Z,3.13
2022-12-31T04:08:00.012Z,3.17
2022-12-31T04:10:28.052Z,3.30
2022-12-31T04:12:56.066Z,3.58
2022-12-31T04:15:24.231Z,3.00
2022-12-31T04:17:52.293Z,2.97
2022-12-31T04:20:21.065Z,3.80
2022-12-31T04:22:50.188Z,3.60
2022-12-31T04:25:19.952Z,3.80
2022-12-31T04:27:48.732Z,3.88
2022-12-31T04:30:17.174Z,4.13
2022-12-31T04:32:45.091Z,4.13
2022-12-31T04:35:13.285Z,3.78
2022-12-31T04:37:41.564Z,3.83
2022-12-31T04:40:10.348Z,3.70
2022-12-31T04:42:39.883Z,4.40
2022-12-31T04:45:09.022Z,3.92
2022-12-31T04:47:37.116Z,3.70
2022-12-31T04:50:06.083Z,4.00
2022-12-31T04:52:38.742Z,3.53
2022-12-31T04:55:11.446Z,3.30
2022-12-31T04:57:42.068Z,3.95
2022-12-31T05:00:11.267Z,3.78
2022-12-31T05:02:39.536Z,4.22
2022-12-31T05:05:08.381Z,4.10
2022-12-31T05:07:36.420Z,3.70
2022-12-31T05:10:05.269Z,3.88
2022-12-31T05:12:33.332Z,3.70
2022-12-31T05:15:02.840Z,3.42
2022-12-31T05:17:30.971Z,4.07
2022-12-31T05:19:58.965Z,4.22
2022-12-31T05:22:29.620Z,3.83
2022-12-31T05:24:58.354Z,4.07
2022-12-31T05:27:26.988Z,4.40
2022-12-31T05:29:55.101Z,5.03
2022-12-31T05:32:24.660Z,4.70
2022-12-31T05:34:53.933Z,5.00
2022-12-31T05:37:21.952Z,5.22
2022-12-31T05:39:50.262Z,5.40
2022-12-31T05:42:18.192Z,5.85
2022-12-31T05:44:46.335Z,5.13
2022-12-31T05:47:15.025Z,5.32
2022-12-31T05:49:44.607Z,4.63
2022-12-31T05:52:12.663Z,5.18
2022-12-31T05:54:40.810Z,5.53
2022-12-31T05:57:09.216Z,5.05
2022-12-31T05:59:37.433Z,5.00
2022-12-31T06:02:05.438Z,5.13
2022-12-31T06:04:35.078Z,4.85
2022-12-31T06:07:04.690Z,4.53
2022-12-31T06:09:32.871Z,4.50
2022-12-31T06:12:01.030Z,4.20
2022-12-31T06:14:28.990Z,3.92
2022-12-31T06:16:57.046Z,4.70
2022-12-31T06:19:25.051Z,4.75
2022-12-31T06:21:52.914Z,4.57
2022-12-31T06:24:22.235Z,3.90
2022-12-31T06:26:50.458Z,4.15
2022-12-31T06:29:18.671Z,4.22
2022-12-31T06:31:48.022Z,4.35
2022-12-31T06:34:15.877Z,4.50
2022-12-31T06:36:43.889Z,4.57
2022-12-31T06:39:11.706Z,4.38
2022-12-31T06:41:41.172Z,4.10
2022-12-31T06:44:08.916Z,4.20
2022-12-31T06:46:36.927Z,4.28
2022-12-31T06:49:04.782Z,4.50
2022-12-31T06:51:32.879Z,4.57
2022-12-31T06:54:00.851Z,4.25
2022-12-31T06:56:34.284Z,4.25
2022-12-31T06:59:05.403Z,4.05
2022-12-31T07:01:48.048Z,4.05
2022-12-31T07:04:55.997Z,4.13
2022-12-31T07:07:31.054Z,4.15
2022-12-31T07:10:07.696Z,3.88
2022-12-31T07:15:13.628Z,3.80
2022-12-31T07:17:48.920Z,4.15
2022-12-31T07:20:19.110Z,4.00
2022-12-31T07:22:47.794Z,4.30
2022-12-31T07:25:17.862Z,4.20
2022-12-31T07:28:10.138Z,3.70
2022-12-31T07:30:46.936Z,4.05
2022-12-31T07:33:35.018Z,3.33
2022-12-31T07:36:16.584Z,3.88
2022-12-31T07:38:55.196Z,3.70
2022-12-31T07:41:38.211Z,4.40
2022-12-31T07:44:12.488Z,4.53
2022-12-31T07:46:53.234Z,4.35
2022-12-31T07:49:21.907Z,10.23
2022-12-31T07:51:52.965Z,14.10
2022-12-31T07:54:21.353Z,9.77
2022-12-31T07:56:51.291Z,7.40
2022-12-31T07:59:34.659Z,8.18
2022-12-31T08:02:12.282Z,6.80
2022-12-31T08:04:50.195Z,5.07
2022-12-31T08:07:24.838Z,5.38
2022-12-31T08:10:02.836Z,7.38
2022-12-31T08:12:35.095Z,7.00
2022-12-31T08:15:04.295Z,5.82
2022-12-31T08:17:34.261Z,5.15
2022-12-31T08:20:03.267Z,5.30
2022-12-31T08:22:45.815Z,4.93
2022-12-31T08:25:21.519Z,5.55
2022-12-31T08:28:00.272Z,4.40
2022-12-31T08:30:37.400Z,4.20
2022-12-31T08:33:14.492Z,4.78
2022-12-31T08:35:56.692Z,4.40
2022-12-31T08:38:32.328Z,4.43
2022-12-31T08:41:10.802Z,4.13
2022-12-31T08:43:49.827Z,5.22
2022-12-31T08:46:23.766Z,5.55
2022-12-31T08:48:53.619Z,5.55
2022-12-31T08:51:24.331Z,5.30
2022-12-31T08:53:53.713Z,5.57
2022-12-31T08:56:29.184Z,5.43
2022-12-31T08:59:08.780Z,6.35
2022-12-31T09:01:51.131Z,5.68
2022-12-31T09:04:27.703Z,5.30
2022-12-31T09:06:59.277Z,5.35
2022-12-31T09:09:38.644Z,5.13
2022-12-31T09:12:12.486Z,5.47
2022-12-31T09:14:55.918Z,5.20
2022-12-31T09:17:36.996Z,4.90
2022-12-31T09:20:14.337Z,4.53
2022-12-31T09:22:42.802Z,4.85
2022-12-31T09:25:15.167Z,4.15
2022-12-31T09:27:51.048Z,4.18
2022-12-31T09:30:20.044Z,5.53
2022-12-31T09:33:00.886Z,6.20
2022-12-31T09:35:37.205Z,6.10
2022-12-31T09:38:12.105Z,4.60
2022-12-31T09:41:11.354Z,5.75
2022-12-31T09:44:14.792Z,6.10
2022-12-31T09:47:29.810Z,5.90
2022-12-31T09:50:21.127Z,6.63
2022-12-31T09:53:05.898Z,5.78
2022-12-31T09:55:38.517Z,5.53
2022-12-31T09:58:25.003Z,5.68
2022-12-31T10:00:58.436Z,36.80
2022-12-31T10:03:52.321Z,15.32
2022-12-31T10:06:29.116Z,9.90
2022-12-31T10:09:32.721Z,10.13
2022-12-31T10:12:29.214Z,9.45
2022-12-31T10:15:19.973Z,7.00
2022-12-31T10:17:59.693Z,6.80
2022-12-31T10:20:46.252Z,6.38
2022-12-31T10:23:34.149Z,6.50
2022-12-31T10:26:26.924Z,5.72
2022-12-31T10:29:09.250Z,6.05
2022-12-31T10:31:48.524Z,5.50
2022-12-31T10:34:20.783Z,5.65
2022-12-31T10:36:55.981Z,4.50
2022-12-31T10:39:43.306Z,5.25
2022-12-31T10:42:49.718Z,5.13
2022-12-31T10:45:48.336Z,4.78
2022-12-31T10:48:55.145Z,5.95
2022-12-31T10:51:50.636Z,5.57
2022-12-31T10:55:06.477Z,8.77
2022-12-31T10:58:06.939Z,4.80
2022-12-31T11:00:41.464Z,5.38
2022-12-31T11:03:45.670Z,4.40
2022-12-31T11:06:49.761Z,4.25
2022-12-31T11:10:10.709Z,4.30
2022-12-31T11:13:11.209Z,4.30
2022-12-31T11:15:54.844Z,4.18
2022-12-31T11:18:33.029Z,4.00
2022-12-31T11:21:15.514Z,4.43
2022-12-31T11:23:55.886Z,4.30
2022-12-31T11:26:35.366Z,4.32
2022-12-31T11:29:14.603Z,4.15
2022-12-31T11:32:07.569Z,4.13
2022-12-31T11:35:14.017Z,4.15
2022-12-31T11:37:47.528Z,4.20
2022-12-31T11:40:42.558Z,4.65
2022-12-31T11:43:27.529Z,4.30
2022-12-31T11:46:28.282Z,4.07
2022-12-31T11:49:09.142Z,3.33
2022-12-31T11:52:07.868Z,4.22
2022-12-31T11:55:01.046Z,3.90
2022-12-31T11:57:35.488Z,3.65
2022-12-31T12:00:13.377Z,4.07
2022-12-31T12:02:46.179Z,4.70
2022-12-31T12:05:16.827Z,4.82
2022-12-31T12:07:47.328Z,5.15
2022-12-31T12:10:27.857Z,4.72
2022-12-31T12:13:00.712Z,5.50
2022-12-31T12:15:31.916Z,6.20
2022-12-31T12:18:09.003Z,6.05
2022-12-31T12:20:39.120Z,5.97
2022-12-31T12:23:22.470Z,6.03
2022-12-31T12:25:51.464Z,5.68
2022-12-31T12:28:22.378Z,5.95
2022-12-31T12:30:59.580Z,6.53
2022-12-31T12:33:30.151Z,5.35
2022-12-31T12:36:09.324Z,5.95
2022-12-31T12:38:39.774Z,5.65
2022-12-31T12:41:12.158Z,6.05
2022-12-31T12:43:40.973Z,5.00
2022-12-31T12:46:32.007Z,5.22
2022-12-31T12:49:00.847Z,4.90
2022-12-31T12:51:40.093Z,5.38
2022-12-31T12:54:20.540Z,4.82
2022-12-31T12:57:00.195Z,4.80
2022-12-31T12:59:54.062Z,4.50
2022-12-31T13:02:58.104Z,4.80
2022-12-31T13:05:38.724Z,4.00
2022-12-31T13:08:22.770Z,3.95
2022-12-31T13:11:07.905Z,4.30
2022-12-31T13:13:44.356Z,3.30
2022-12-31T13:16:22.768Z,3.33
2022-12-31T13:18:59.346Z,2.90
2022-12-31T13:21:38.387Z,2.78
2022-12-31T13:24:18.817Z,2.67
2022-12-31T13:26:54.999Z,5.00
2022-12-31T13:29:29.532Z,4.15
2022-12-31T13:32:01.301Z,3.35
2022-12-31T13:34:33.385Z,2.70
2022-12-31T13:37:06.147Z,2.40
2022-12-31T13:39:40.222Z,2.88
2022-12-31T13:42:15.618Z,3.13
2022-12-31T13:44:50.242Z,2.28
2022-12-31T13:47:25.073Z,2.42
2022-12-31T13:49:59.376Z,3.00
2022-12-31T13:52:35.267Z,2.38
2022-12-31T13:55:13.033Z,2.70
2022-12-31T13:57:46.490Z,2.10
2022-12-31T14:00:21.823Z,2.90
2022-12-31T14:03:00.848Z,2.63
2022-12-31T14:05:34.665Z,2.20
2022-12-31T14:08:05.645Z,6.57
2022-12-31T14:10:55.213Z,5.47
2022-12-31T14:13:58.306Z,4.53
2022-12-31T14:16:34.742Z,4.70
2022-12-31T14:21:39.929Z,3.85
2022-12-31T14:24:14.277Z,3.88
2022-12-31T14:26:45.653Z,3.10
2022-12-31T14:29:29.716Z,3.00
2022-12-31T14:32:22.333Z,3.33
2022-12-31T14:34:58.821Z,3.00
2022-12-31T14:37:35.746Z,2.45
2022-12-31T14:40:16.245Z,2.38
2022-12-31T14:42:52.536Z,2.55
2022-12-31T14:45:30.870Z,2.40
2022-12-31T14:48:06.826Z,3.47
2022-12-31T14:50:35.141Z,3.00
2022-12-31T14:53:09.619Z,3.30
2022-12-31T14:55:39.172Z,3.42
2022-12-31T14:58:28.202Z,2.90
2022-12-31T15:00:59.383Z,3.80
2022-12-31T15:03:37.891Z,3.70
2022-12-31T15:06:28.248Z,3.00
2022-12-31T15:09:08.527Z,2.85
2022-12-31T15:12:21.195Z,3.17
2022-12-31T15:15:15.694Z,3.33
2022-12-31T15:17:55.619Z,3.65
2022-12-31T15:20:44.044Z,3.80
2022-12-31T15:23:21.916Z,3.40
2022-12-31T15:25:54.832Z,3.20
2022-12-31T15:28:34.705Z,3.03
2022-12-31T15:31:07.974Z,3.63
2022-12-31T15:33:52.863Z,4.03
2022-12-31T15:36:22.817Z,3.30
2022-12-31T15:38:51.590Z,3.45
2022-12-31T15:41:28.871Z,3.05
2022-12-31T15:46:29.504Z,3.30
2022-12-31T15:49:06.797Z,3.70
2022-12-31T15:51:45.047Z,3.58
2022-12-31T15:54:23.555Z,3.75
2022-12-31T15:56:53.443Z,3.35
2022-12-31T15:59:23.695Z,3.63
2022-12-31T16:01:51.451Z,4.07
2022-12-31T16:04:23.267Z,5.05
2022-12-31T16:06:51.858Z,5.32
2022-12-31T16:09:25.056Z,7.70
2022-12-31T16:11:54.827Z,14.85
2022-12-31T16:14:25.839Z,11.80
2022-12-31T16:16:56.075Z,9.55
2022-12-31T16:19:41.169Z,11.40
2022-12-31T16:22:17.039Z,8.77
2022-12-31T16:25:19.501Z,8.50
2022-12-31T16:27:34.702Z,10.23
2022-12-31T16:30:04.979Z,9.05
2022-12-31T16:32:35.792Z,7.57
2022-12-31T16:35:23.716Z,6.50
2022-12-31T16:38:02.125Z,6.50
2022-12-31T16:40:29.929Z,6.32
2022-12-31T16:42:57.505Z,6.25
2022-12-31T16:45:32.155Z,6.03
2022-12-31T16:48:09.925Z,5.30
2022-12-31T16:50:46.528Z,5.93
2022-12-31T16:53:18.512Z,9.35
2022-12-31T16:55:54.724Z,8.20
2022-12-31T16:58:27.399Z,8.57
2022-12-31T17:01:00.352Z,7.90
2022-12-31T17:03:30.030Z,8.05
2022-12-31T17:06:12.633Z,11.63
2022-12-31T17:08:42.693Z,13.43
2022-12-31T17:11:23.744Z,11.27
2022-12-31T17:13:57.184Z,10.77
2022-12-31T17:16:26.004Z,11.27
2022-12-31T17:18:53.935Z,10.48
2022-12-31T17:21:27.836Z,10.75
2022-12-31T17:24:01.112Z,11.50
2022-12-31T17:26:31.231Z,10.63
2022-12-31T17:29:00.636Z,11.90
2022-12-31T17:31:34.558Z,16.13
2022-12-31T17:34:21.034Z,14.18
2022-12-31T17:37:18.863Z,13.98
2022-12-31T17:39:49.160Z,14.68
2022-12-31T17:42:31.942Z,14.07
2022-12-31T17:45:03.294Z,12.68
2022-12-31T17:47:37.311Z,13.82
2022-12-31T17:50:20.989Z,14.02
2022-12-31T17:52:50.934Z,15.95
2022-12-31T17:55:19.770Z,15.00
2022-12-31T17:57:51.834Z,16.08
2022-12-31T18:00:22.332Z,15.02
2022-12-31T18:02:50.830Z,14.48
2022-12-31T18:05:20.229Z,16.08
2022-12-31T18:07:50.053Z,16.27
2022-12-31T18:10:21.917Z,18.15
2022-12-31T18:12:50.748Z,17.05
2022-12-31T18:15:21.402Z,16.80
2022-12-31T18:17:49.747Z,18.63
2022-12-31T18:20:18.306Z,18.42
2022-12-31T18:22:46.837Z,17.35
2022-12-31T18:25:19.103Z,17.98
2022-12-31T18:27:47.295Z,19.00
2022-12-31T18:30:18.576Z,19.38
2022-12-31T18:32:47.343Z,18.67
2022-12-31T18:35:40.630Z,18.83
2022-12-31T18:38:10.950Z,22.17
2022-12-31T18:40:44.474Z,20.38
2022-12-31T18:43:16.845Z,22.05
2022-12-31T18:45:52.477Z,21.23
2022-12-31T18:48:20.841Z,21.48
2022-12-31T18:50:49.639Z,21.02
2022-12-31T18:53:20.028Z,20.40
2022-12-31T18:55:52.137Z,18.88
2022-12-31T18:58:20.602Z,17.88
2022-12-31T19:00:49.919Z,18.98
2022-12-31T19:03:20.257Z,17.65
2022-12-31T19:05:51.190Z,16.13
2022-12-31T19:08:20.070Z,16.48
2022-12-31T19:10:51.405Z,17.13
2022-12-31T19:13:20.315Z,17.85
2022-12-31T19:15:49.989Z,17.55
2022-12-31T19:18:18.261Z,17.08
2022-12-31T19:20:46.855Z,18.20
2022-12-31T19:23:18.160Z,16.15
2022-12-31T19:25:48.917Z,14.68
2022-12-31T19:28:18.974Z,15.00
2022-12-31T19:30:47.267Z,15.77
2022-12-31T19:33:16.133Z,13.80
2022-12-31T19:35:44.483Z,15.23
2022-12-31T19:38:19.057Z,14.38
2022-12-31T19:40:49.745Z,13.52
2022-12-31T19:43:20.799Z,14.32
2022-12-31T19:45:49.402Z,12.52
2022-12-31T19:48:18.577Z,24.45
2022-12-31T19:50:48.824Z,16.40
2022-12-31T19:53:18.828Z,17.48
2022-12-31T19:55:49.140Z,20.00
2022-12-31T19:58:19.961Z,19.50
2022-12-31T20:00:54.821Z,19.30
2022-12-31T20:03:25.629Z,23.17
2022-12-31T20:06:02.293Z,29.45
2022-12-31T20:08:30.496Z,36.78
2022-12-31T20:11:07.074Z,41.55
2022-12-31T20:13:35.790Z,33.25
2022-12-31T20:16:06.065Z,42.00
2022-12-31T20:18:34.101Z,51.80
2022-12-31T20:21:02.045Z,50.53
2022-12-31T20:23:32.636Z,48.85
2022-12-31T20:26:03.128Z,50.63
2022-12-31T20:28:31.416Z,49.95
2022-12-31T20:30:59.565Z,51.55
2022-12-31T20:33:30.400Z,51.35
2022-12-31T20:36:03.328Z,47.88
2022-12-31T20:38:31.731Z,53.63
2022-12-31T20:41:05.626Z,53.28
2022-12-31T20:43:34.701Z,53.58
2022-12-31T20:46:12.673Z,51.72
2022-12-31T20:48:44.285Z,50.78
2022-12-31T20:51:13.505Z,46.38
2022-12-31T20:53:47.489Z,31.08
2022-12-31T20:56:18.119Z,31.02
2022-12-31T20:58:46.330Z,27.08
2022-12-31T21:01:15.109Z,26.40
2022-12-31T21:06:35.772Z,15.75
2022-12-31T21:09:06.036Z,17.13
2022-12-31T21:11:54.712Z,16.08
2022-12-31T21:14:23.550Z,16.00
2022-12-31T21:16:51.798Z,13.68
2022-12-31T21:19:19.797Z,13.15
2022-12-31T21:21:48.499Z,12.95
2022-12-31T21:24:23.302Z,14.13
2022-12-31T21:26:55.992Z,14.13
2022-12-31T21:29:24.104Z,13.10
2022-12-31T21:31:52.025Z,13.70
2022-12-31T21:34:20.272Z,15.52
2022-12-31T21:36:48.654Z,19.25
2022-12-31T21:39:16.874Z,16.02
2022-12-31T21:41:54.217Z,14.38
2022-12-31T21:44:25.471Z,13.07
2022-12-31T21:47:34.881Z,13.05
2022-12-31T21:50:06.250Z,12.50
2022-12-31T21:52:35.383Z,12.00
2022-12-31T21:55:23.909Z,11.55
2022-12-31T21:58:24.682Z,11.50
2022-12-31T22:01:00.946Z,12.70
2022-12-31T22:03:29.439Z,12.20
2022-12-31T22:06:00.608Z,13.07
2022-12-31T22:08:29.841Z,13.75
2022-12-31T22:10:58.037Z,12.82
2022-12-31T22:13:26.214Z,11.20
2022-12-31T22:16:03.967Z,12.23
2022-12-31T22:18:35.248Z,11.77
2022-12-31T22:21:05.826Z,11.95
2022-12-31T22:23:34.675Z,10.93
2022-12-31T22:26:03.035Z,41.58
2022-12-31T22:28:39.842Z,18.60
2022-12-31T22:31:12.836Z,21.23
2022-12-31T22:33:40.842Z,15.55
2022-12-31T22:36:11.830Z,12.85
2022-12-31T22:38:39.737Z,11.73
2022-12-31T22:41:09.615Z,9.80
2022-12-31T22:43:40.039Z,12.65
2022-12-31T22:46:11.869Z,21.00
2022-12-31T22:48:40.578Z,21.38
2022-12-31T22:51:09.502Z,14.25
2022-12-31T22:53:39.845Z,15.13
2022-12-31T22:56:08.711Z,15.02
2022-12-31T22:58:37.056Z,14.90
2022-12-31T23:01:06.358Z,13.88
2022-12-31T23:03:35.973Z,16.10
2022-12-31T23:06:04.122Z,16.92
2022-12-31T23:08:32.006Z,21.08
2022-12-31T23:11:00.666Z,18.33
2022-12-31T23:13:50.823Z,43.47
2022-12-31T23:16:38.583Z,59.40
2022-12-31T23:19:26.790Z,89.75
2022-12-31T23:22:13.149Z,72.05
2022-12-31T23:24:41.295Z,59.38
2022-12-31T23:27:09.572Z,85.93
2022-12-31T23:29:46.264Z,105.88
2022-12-31T23:32:16.463Z,101.38
2022-12-31T23:34:46.607Z,93.82
2022-12-31T23:37:15.298Z,89.40
2022-12-31T23:39:43.565Z,64.57
2022-12-31T23:42:11.556Z,53.47
2022-12-31T23:44:39.608Z,47.88
2022-12-31T23:47:07.712Z,38.47
2022-12-31T23:49:35.732Z,37.13
2022-12-31T23:52:05.235Z,31.35
2022-12-31T23:55:03.998Z,28.08
2022-12-31T23:57:32.217Z,31.15
